Main page
METAR-TAF:

METAR-TAF

Airports :

Le Havre – Octeville Airport

Le Havre, France

latitude: 49-31N, longitude: 000-04E, elevation: 100 m

Current weather observation

The report was made 15 minutes ago, at 09:00 UTC
Wind 2 kt from variable directions
Temperature 9°C
Humidity 71%
Pressure 1035 hPa
Visibility 10 km or more
Few clouds at a height of 1700 ft

METAR: LFOH 260900Z AUTO VRB02KT 9999 FEW017 09/04 Q1035 NOSIG

Time: 10:15 (09:15 UTC)

Forecast

The report was made 4 hours and 15 minutes ago, at 05:00 UTC
Forecast valid from 26 at 06 UTC to 27 at 06 UTC
Wind 3 kt from variable directions
Visibility 10 km or more
no clouds below 1500 m and no cumulonimbus
Probability 30%
from 27 at 00 UTC to 27 at 06 UTC
Visibility: 0500 m
patches of fog

TAF: LFOH 260500Z 2606/2706 VRB03KT CAVOK PROB30 2700/2706 0500 BCFG

Weather observations and forecasts of more than 4000 airports (METAR and TAF reports).

The available stations are represented by yellow and red dots on the map.

Hover mouse over dot to see the name of the station.

Then click to see weather observations and forecasts.

To change the map : click on the green buttons with a black cross to zoom in, on the green button with a dash to zoom out, or on the green arrows for adjacent maps.


METAR-TAF: